Flight Number: EUR1129 Duration: 1:20
Departure: Moscow Sheremetyevo (UUEE) at 18:20 Distance: 473 Nm
Arrival: Helsinki Vantaa (EFHK) at 19:40 Equipment: A321

Weather Information
Moscow / Sheremet'Ye , Russia (UUEE) 55-59N 037-30E May 22, 2018 - 03:00 PM EDT / 2018.05.22 1900 UTC
Wind: from the SE (140 degrees) at 7 MPH (6 KT) (direction variable):0
Visibility: greater than 7 mile(s):0 Temperature: 62 F (17 C) Dew Point: 51 F (11 C) Relative Humidity: 67% Pressure (altimeter): 30.24 in. Hg (1024 hPa)
ob: UUEE 221900Z 14003MPS 090V170 CAVOK 17/11 Q1024 R06C/CLRD62 R06R/CLRD62 NOSIG cycle: 19
Sunrise: 01:10 Sunset: 17:44 (UTC)

Helsinki-Vantaa, Finland (EFHK) 60-19N 024-58E 56M May 22, 2018 - 03:20 PM EDT / 2018.05.22 1920 UTC
Wind: Variable at 3 MPH (3 KT):0
Visibility: greater than 7 mile(s):0 Temperature: 64 F (18 C) Dew Point: 41 F (5 C) Relative Humidity: 42% Pressure (altimeter): 30.06 in. Hg (1018 hPa)
ob: EFHK 221920Z VRB03KT CAVOK 18/05 Q1018 NOSIG cycle: 19
Sunrise: 01:29 Sunset: 19:04 (UTC)

TAF:2018/05/22 18:42 TAF TAF EFHK 221735Z 2218/2318 14007KT CAVOK PROB30 TEMPO 2303/2308 FEW060CB BECMG 2306/2308 32010KT TEMPO 2308/2316 FEW060CB

Previous Pireps for this route
Date Aircraft Flight time Fuel used Landing rate On time
2012-11-22A32101.4610554-318Yes
2013-08-15A32101.349686-165No
2013-09-17A32101.4613775-195Yes
2013-10-18A3211.20263100No
2013-12-30B7372.00150000Charter
2014-06-12A32100.2215144-234No
2015-01-08A32102.1312655-58Yes
2015-03-20A32101.3111337-326Yes
2015-09-16A32101.2712944-178No
(pireps marked green are flown by you)

Route map